Las Vegas, Nevada
Current Conditions -  °F | °C
As of 9:56 PM on Monday 20 Oct 2014 (Local Time) from KLAS Reporting Station
Few Clouds Few Clouds  
Wind Chill: 26°   Ceiling: Unl
Heat Index: 26°   Visibility: 10mi
Dew Point:   Wind: 10mph
Humidity: 25%   Direction: 190°S
Pressure: 29.82"   Gusts: NA
Location:  36.17°N, 115.13°W
Report Text: KLAS 210456Z 19009KT 10SM FEW140 FEW180 26/04 A2982 RMK AO2 SLP075 T02560044
Loading
Personal Weather Stations






























Interactive Weather Map New forecast layout! Learn more

10-Day Weather Forecast

Advertisements
Track Severe Weather on mobile